Sea Jay — WDE8232 — position and weather

sailwx.info

Track history (hours):
 
Tides and Currents Weather Stations Pressure Air Temp Water Temp Dewpoint Dewpoint Depression Visibility Wind Speed Wind Dir Waves Ship Positions

Sea Jay

More information available from US FCC via Universal Licensing System and Coast Guard Vessel Documentation Center.

Last reported at 2014-Sep-17 06:30 UTC. Time now 2014-Sep-17 07:36 UTC.
Position N 48°00' W 122°13'.

Length 21 m.

Type: Pleasure craft. MMSI: 367403070.

Date/timePositionNaut miles runAvg speedWind from/ knotsBaromVisibWave heightAir tempDewpointWater temp
2014-Sep-17 06:30N 48°00' W 122°13'0 0.0
2014-Sep-17 05:33N 48°00' W 122°13'0 0.0
2014-Sep-17 04:33N 48°00' W 122°13'0 0.0
2014-Sep-17 03:33N 48°00' W 122°13'0 0.0
2014-Sep-17 02:33N 48°00' W 122°13'0 0.0
2014-Sep-17 01:33N 48°00' W 122°13'0 0.0
2014-Sep-17 00:33N 48°00' W 122°13'0 0.3
2014-Sep-16 23:33N 47°60' W 122°13'4 3.6
2014-Sep-16 22:33N 47°58' W 122°17'9 8.5
2014-Sep-16 21:33N 47°55' W 122°30'3510.2
2014-Sep-16 18:06N 48°24' W 123°02'610.2
2014-Sep-16 17:33N 48°28' W 123°06'7 6.9
2014-Sep-16 16:34N 48°34' W 123°11'  
2014-Sep-13 18:30N 48°57' W 123°42'4 3.6
2014-Sep-13 17:18N 48°59' W 123°47'0 0.0
2014-Sep-13 16:30N 48°59' W 123°47'0 0.0
2014-Sep-13 15:30N 48°59' W 123°47'0 0.0
2014-Sep-13 13:18N 48°59' W 123°47'0 0.0
2014-Sep-13 11:24N 48°59' W 123°47'0 0.0
2014-Sep-13 04:18N 48°59' W 123°47'0 0.0
2014-Sep-13 02:24N 48°59' W 123°47'0 0.0
2014-Sep-13 01:06N 48°59' W 123°47'0 0.0
2014-Sep-13 00:18N 48°59' W 123°47'0 0.1
2014-Sep-12 21:14N 48°59' W 123°47'5 6.6
2014-Sep-12 20:25N 49°05' W 123°46'8 9.1
2014-Sep-12 19:32N 49°10' W 123°55'1 0.5
2014-Sep-12 18:28N 49°10' W 123°56'0 0.0
2014-Sep-12 17:28N 49°10' W 123°56'0 0.0
2014-Sep-12 15:04N 49°10' W 123°56'0 0.0
2014-Sep-12 13:04N 49°10' W 123°56'0 0.0
2014-Sep-12 09:22N 49°10' W 123°56'0 0.0
2014-Sep-12 06:22N 49°10' W 123°56'0 0.0
2014-Sep-12 05:29N 49°10' W 123°56'0 0.0
2014-Sep-12 04:28N 49°10' W 123°56'0 0.0
2014-Sep-12 03:28N 49°10' W 123°56'0 0.0
2014-Sep-12 02:28N 49°10' W 123°56'0 0.0
2014-Sep-12 01:05N 49°10' W 123°56'0 0.0
2014-Sep-12 00:28N 49°10' W 123°56'0 0.0
2014-Sep-11 22:29N 49°10' W 123°56'0 0.0
2014-Sep-11 21:28N 49°10' W 123°56'0 0.0
2014-Sep-11 20:28N 49°10' W 123°56'0 0.0
2014-Sep-11 19:22N 49°10' W 123°56'0 0.0
2014-Sep-11 18:22N 49°10' W 123°56'0 0.0
2014-Sep-11 17:28N 49°10' W 123°56'0 0.0
2014-Sep-11 16:28N 49°10' W 123°56'0 0.0
2014-Sep-11 15:23N 49°10' W 123°56'0 0.0
2014-Sep-11 14:28N 49°10' W 123°56'0 0.0
2014-Sep-11 13:29N 49°10' W 123°56'0 0.0
2014-Sep-11 12:22N 49°10' W 123°56'0 0.0
2014-Sep-11 11:16N 49°10' W 123°56'0 0.0
2014-Sep-11 08:22N 49°10' W 123°56'0 0.0
2014-Sep-11 04:17N 49°10' W 123°56'  
Track history (hours):
 
Tides and Currents Weather Stations Pressure Air Temp Water Temp Dewpoint Dewpoint Depression Visibility Wind Speed Wind Dir Waves Ship Positions

Sea Jay

More information available from US FCC via Universal Licensing System and Coast Guard Vessel Documentation Center.

Last reported at 2014-Sep-17 06:30 UTC. Time now 2014-Sep-17 07:36 UTC.
Position N 48°00' W 122°13'.

Length 21 m.

Type: Pleasure craft. MMSI: 367403070.

Date/timePositionNaut miles runAvg speedWind from/ knotsBaromVisibWave heightAir tempDewpointWater temp
2014-Sep-17 06:30N 48°00' W 122°13'0 0.0
2014-Sep-17 05:33N 48°00' W 122°13'0 0.0
2014-Sep-17 04:33N 48°00' W 122°13'0 0.0
2014-Sep-17 03:33N 48°00' W 122°13'0 0.0
2014-Sep-17 02:33N 48°00' W 122°13'0 0.0
2014-Sep-17 01:33N 48°00' W 122°13'0 0.0
2014-Sep-17 00:33N 48°00' W 122°13'0 0.3
2014-Sep-16 23:33N 47°60' W 122°13'4 3.6
2014-Sep-16 22:33N 47°58' W 122°17'9 8.5
2014-Sep-16 21:33N 47°55' W 122°30'3510.2
2014-Sep-16 18:06N 48°24' W 123°02'610.2
2014-Sep-16 17:33N 48°28' W 123°06'7 6.9
2014-Sep-16 16:34N 48°34' W 123°11'  
2014-Sep-13 18:30N 48°57' W 123°42'4 3.6
2014-Sep-13 17:18N 48°59' W 123°47'0 0.0
2014-Sep-13 16:30N 48°59' W 123°47'0 0.0
2014-Sep-13 15:30N 48°59' W 123°47'0 0.0
2014-Sep-13 13:18N 48°59' W 123°47'0 0.0
2014-Sep-13 11:24N 48°59' W 123°47'0 0.0
2014-Sep-13 04:18N 48°59' W 123°47'0 0.0
2014-Sep-13 02:24N 48°59' W 123°47'0 0.0
2014-Sep-13 01:06N 48°59' W 123°47'0 0.0
2014-Sep-13 00:18N 48°59' W 123°47'0 0.1
2014-Sep-12 21:14N 48°59' W 123°47'5 6.6
2014-Sep-12 20:25N 49°05' W 123°46'8 9.1
2014-Sep-12 19:32N 49°10' W 123°55'1 0.5
2014-Sep-12 18:28N 49°10' W 123°56'0 0.0
2014-Sep-12 17:28N 49°10' W 123°56'0 0.0
2014-Sep-12 15:04N 49°10' W 123°56'0 0.0
2014-Sep-12 13:04N 49°10' W 123°56'0 0.0
2014-Sep-12 09:22N 49°10' W 123°56'0 0.0
2014-Sep-12 06:22N 49°10' W 123°56'0 0.0
2014-Sep-12 05:29N 49°10' W 123°56'0 0.0
2014-Sep-12 04:28N 49°10' W 123°56'0 0.0
2014-Sep-12 03:28N 49°10' W 123°56'0 0.0
2014-Sep-12 02:28N 49°10' W 123°56'0 0.0
2014-Sep-12 01:05N 49°10' W 123°56'0 0.0
2014-Sep-12 00:28N 49°10' W 123°56'0 0.0
2014-Sep-11 22:29N 49°10' W 123°56'0 0.0
2014-Sep-11 21:28N 49°10' W 123°56'0 0.0
2014-Sep-11 20:28N 49°10' W 123°56'0 0.0
2014-Sep-11 19:22N 49°10' W 123°56'0 0.0
2014-Sep-11 18:22N 49°10' W 123°56'0 0.0
2014-Sep-11 17:28N 49°10' W 123°56'0 0.0
2014-Sep-11 16:28N 49°10' W 123°56'0 0.0
2014-Sep-11 15:23N 49°10' W 123°56'0 0.0
2014-Sep-11 14:28N 49°10' W 123°56'0 0.0
2014-Sep-11 13:29N 49°10' W 123°56'0 0.0
2014-Sep-11 12:22N 49°10' W 123°56'0 0.0
2014-Sep-11 11:16N 49°10' W 123°56'0 0.0
2014-Sep-11 08:22N 49°10' W 123°56'0 0.0
2014-Sep-11 04:17N 49°10' W 123°56'  

Dump ship's entire track history